Hakozaki Maru — JJ3662 — position and weather

sailwx.info

Track history (hours):
 
Tides and Currents Weather Stations Pressure Air Temp Water Temp Dewpoint Dewpoint Depression Visibility Wind Speed Wind Dir Waves Ship Positions

Hakozaki Maru

Last reported at 2015-May-28 07:26 UTC. Time now 2015-May-29 00:13 UTC.
Position N 34°40' E 135°15'.

Length 31 m; draft 2.5 m.

Type: Tug. MMSI: 431000322.

Date/timePositionNaut miles runAvg speedWind from/ knotsBaromVisibWave heightAir tempDewpointWater temp
2015-May-28 07:26N 34°40' E 135°15'1 0.7
2015-May-28 06:31N 34°41' E 135°15'2 2.0
2015-May-28 05:21N 34°41' E 135°12'0 0.0
2015-May-28 04:33N 34°41' E 135°12'0 0.0
2015-May-28 03:33N 34°41' E 135°12'0 0.0
2015-May-28 02:33N 34°41' E 135°12'0 0.0
2015-May-28 01:33N 34°41' E 135°12'0 0.0
2015-May-28 00:33N 34°41' E 135°12'0 0.0
2015-May-27 23:33N 34°41' E 135°12'4 3.9
2015-May-27 22:34N 34°42' E 135°17'2 1.7
2015-May-27 21:33N 34°41' E 135°16'3 2.7
2015-May-27 20:28N 34°41' E 135°12'4 0.3
2015-May-27 08:05N 34°42' E 135°16'1 1.4
2015-May-27 07:33N 34°42' E 135°17'0 0.1
2015-May-27 06:32N 34°42' E 135°17'2 1.7
2015-May-27 05:33N 34°42' E 135°15'3 2.4
2015-May-27 04:30N 34°41' E 135°12'0 0.0
2015-May-27 03:24N 34°41' E 135°12'0 0.0
2015-May-27 02:29N 34°41' E 135°12'0 0.0
2015-May-27 01:30N 34°41' E 135°12'0 0.0
2015-May-27 00:29N 34°41' E 135°12'0 0.0
2015-May-26 23:30N 34°41' E 135°12'2 0.1
2015-May-26 09:20N 34°40' E 135°14'2 2.2
2015-May-26 08:30N 34°39' E 135°16'3 2.9
2015-May-26 07:28N 34°42' E 135°16'3 3.1
2015-May-26 06:33N 34°40' E 135°14'0 0.3
2015-May-26 05:15N 34°40' E 135°13'3 3.5
2015-May-26 04:29N 34°42' E 135°15'2 2.2
2015-May-26 03:32N 34°40' E 135°16'1 0.5
2015-May-26 02:28N 34°40' E 135°15'0 0.0
2015-May-26 01:28N 34°40' E 135°15'0 0.0
2015-May-26 00:28N 34°40' E 135°15'0 0.0
2015-May-25 23:28N 34°40' E 135°15'0 0.0
2015-May-25 22:28N 34°40' E 135°15'1 1.5
2015-May-25 21:30N 34°39' E 135°16'4 4.0
2015-May-25 20:33N 34°41' E 135°12'0 0.0
2015-May-25 06:14N 34°41' E 135°12'0 0.0
2015-May-25 05:32N 34°41' E 135°12'0 0.0
2015-May-25 04:32N 34°41' E 135°12'0 0.0
2015-May-25 03:26N 34°41' E 135°12'3 3.3
2015-May-25 02:32N 34°41' E 135°16'3 2.6
2015-May-25 01:23N 34°41' E 135°12'2 0.1
2015-May-24 04:32N 34°40' E 135°14'1 0.9
2015-May-24 03:33N 34°40' E 135°15'0 0.4
2015-May-24 02:30N 34°40' E 135°15'0 0.0
2015-May-24 01:30N 34°40' E 135°15'0 0.2
2015-May-24 00:32N 34°40' E 135°15'2 2.1
2015-May-23 23:28N 34°41' E 135°12'0 0.0
2015-May-23 22:22N 34°41' E 135°12'0 0.0
2015-May-23 05:26N 34°41' E 135°12'0 0.0
2015-May-23 04:32N 34°41' E 135°12'0 0.0
2015-May-23 03:32N 34°41' E 135°12'0 0.0
2015-May-23 02:32N 34°41' E 135°12'0 0.0
2015-May-23 01:32N 34°41' E 135°12'0 0.0
2015-May-23 00:32N 34°41' E 135°12'3 2.9
2015-May-22 23:33N 34°42' E 135°16'0 0.0
2015-May-22 22:33N 34°42' E 135°16'2 1.9
2015-May-22 21:33N 34°41' E 135°14'1 1.2
2015-May-22 20:32N 34°41' E 135°12'4 0.3
2015-May-22 06:32N 34°41' E 135°17'4 3.8
2015-May-22 05:28N 34°41' E 135°12'0 0.0
2015-May-22 04:22N 34°41' E 135°12'0 0.0
2015-May-22 03:16N 34°41' E 135°12'0 0.0
2015-May-22 02:28N 34°41' E 135°12'0 0.0
2015-May-22 01:28N 34°41' E 135°12'0 0.0
2015-May-22 00:28N 34°41' E 135°12'3 2.6
2015-May-21 23:31N 34°39' E 135°15'2 1.8
2015-May-21 22:34N 34°41' E 135°16'2 1.7
2015-May-21 21:33N 34°41' E 135°18'5 4.8
2015-May-21 20:31N 34°41' E 135°12'1 0.0
2015-May-20 23:22N 34°41' E 135°13'4 4.7
2015-May-20 22:30N 34°42' E 135°18'3 2.6
2015-May-20 21:33N 34°41' E 135°15'3 2.5
2015-May-20 20:31N 34°41' E 135°12'0 0.0
2015-May-20 11:17N 34°41' E 135°13'2 2.8
2015-May-20 10:33N 34°40' E 135°15'1 1.0
2015-May-20 09:26N 34°39' E 135°15'1 1.3
2015-May-20 08:23N 34°40' E 135°13'1 0.6
2015-May-20 07:31N 34°40' E 135°14'1 1.1
2015-May-20 06:33N 34°41' E 135°14'1 0.6
2015-May-20 05:33N 34°41' E 135°14'1 0.7
2015-May-20 04:30N 34°41' E 135°15'2 2.5
2015-May-20 03:32N 34°41' E 135°12'0 0.0
2015-May-20 02:26N 34°41' E 135°12'0 0.0
2015-May-20 01:32N 34°41' E 135°12'0 0.0
2015-May-20 00:26N 34°41' E 135°12'0 0.0
2015-May-19 23:29N 34°41' E 135°12'2 2.7
2015-May-19 22:33N 34°40' E 135°15'1 1.1
2015-May-19 21:33N 34°41' E 135°14'1 1.3
2015-May-19 20:32N 34°41' E 135°12'2 0.2
2015-May-19 09:14N 34°42' E 135°15'1 1.0
2015-May-19 08:33N 34°42' E 135°15'3 2.3
2015-May-19 07:23N 34°41' E 135°12'0 0.0
2015-May-19 06:29N 34°41' E 135°12'0 0.0
2015-May-19 05:29N 34°41' E 135°12'0 0.0
2015-May-19 04:29N 34°41' E 135°12'0 0.0
2015-May-19 03:23N 34°41' E 135°12'3 3.0
2015-May-19 02:22N 34°42' E 135°16'0 0.4
2015-May-19 01:33N 34°42' E 135°15'3 2.6
2015-May-19 00:31N 34°41' E 135°12'0 0.0
2015-May-18 23:24N 34°41' E 135°12'  
Track history (hours):
 
Tides and Currents Weather Stations Pressure Air Temp Water Temp Dewpoint Dewpoint Depression Visibility Wind Speed Wind Dir Waves Ship Positions

Hakozaki Maru

Last reported at 2015-May-28 07:26 UTC. Time now 2015-May-29 00:13 UTC.
Position N 34°40' E 135°15'.

Length 31 m; draft 2.5 m.

Type: Tug. MMSI: 431000322.

Date/timePositionNaut miles runAvg speedWind from/ knotsBaromVisibWave heightAir tempDewpointWater temp
2015-May-28 07:26N 34°40' E 135°15'1 0.7
2015-May-28 06:31N 34°41' E 135°15'2 2.0
2015-May-28 05:21N 34°41' E 135°12'0 0.0
2015-May-28 04:33N 34°41' E 135°12'0 0.0
2015-May-28 03:33N 34°41' E 135°12'0 0.0
2015-May-28 02:33N 34°41' E 135°12'0 0.0
2015-May-28 01:33N 34°41' E 135°12'0 0.0
2015-May-28 00:33N 34°41' E 135°12'0 0.0
2015-May-27 23:33N 34°41' E 135°12'4 3.9
2015-May-27 22:34N 34°42' E 135°17'2 1.7
2015-May-27 21:33N 34°41' E 135°16'3 2.7
2015-May-27 20:28N 34°41' E 135°12'4 0.3
2015-May-27 08:05N 34°42' E 135°16'1 1.4
2015-May-27 07:33N 34°42' E 135°17'0 0.1
2015-May-27 06:32N 34°42' E 135°17'2 1.7
2015-May-27 05:33N 34°42' E 135°15'3 2.4
2015-May-27 04:30N 34°41' E 135°12'0 0.0
2015-May-27 03:24N 34°41' E 135°12'0 0.0
2015-May-27 02:29N 34°41' E 135°12'0 0.0
2015-May-27 01:30N 34°41' E 135°12'0 0.0
2015-May-27 00:29N 34°41' E 135°12'0 0.0
2015-May-26 23:30N 34°41' E 135°12'2 0.1
2015-May-26 09:20N 34°40' E 135°14'2 2.2
2015-May-26 08:30N 34°39' E 135°16'3 2.9
2015-May-26 07:28N 34°42' E 135°16'3 3.1
2015-May-26 06:33N 34°40' E 135°14'0 0.3
2015-May-26 05:15N 34°40' E 135°13'3 3.5
2015-May-26 04:29N 34°42' E 135°15'2 2.2
2015-May-26 03:32N 34°40' E 135°16'1 0.5
2015-May-26 02:28N 34°40' E 135°15'0 0.0
2015-May-26 01:28N 34°40' E 135°15'0 0.0
2015-May-26 00:28N 34°40' E 135°15'0 0.0
2015-May-25 23:28N 34°40' E 135°15'0 0.0
2015-May-25 22:28N 34°40' E 135°15'1 1.5
2015-May-25 21:30N 34°39' E 135°16'4 4.0
2015-May-25 20:33N 34°41' E 135°12'0 0.0
2015-May-25 06:14N 34°41' E 135°12'0 0.0
2015-May-25 05:32N 34°41' E 135°12'0 0.0
2015-May-25 04:32N 34°41' E 135°12'0 0.0
2015-May-25 03:26N 34°41' E 135°12'3 3.3
2015-May-25 02:32N 34°41' E 135°16'3 2.6
2015-May-25 01:23N 34°41' E 135°12'2 0.1
2015-May-24 04:32N 34°40' E 135°14'1 0.9
2015-May-24 03:33N 34°40' E 135°15'0 0.4
2015-May-24 02:30N 34°40' E 135°15'0 0.0
2015-May-24 01:30N 34°40' E 135°15'0 0.2
2015-May-24 00:32N 34°40' E 135°15'2 2.1
2015-May-23 23:28N 34°41' E 135°12'0 0.0
2015-May-23 22:22N 34°41' E 135°12'0 0.0
2015-May-23 05:26N 34°41' E 135°12'0 0.0
2015-May-23 04:32N 34°41' E 135°12'0 0.0
2015-May-23 03:32N 34°41' E 135°12'0 0.0
2015-May-23 02:32N 34°41' E 135°12'0 0.0
2015-May-23 01:32N 34°41' E 135°12'0 0.0
2015-May-23 00:32N 34°41' E 135°12'3 2.9
2015-May-22 23:33N 34°42' E 135°16'0 0.0
2015-May-22 22:33N 34°42' E 135°16'2 1.9
2015-May-22 21:33N 34°41' E 135°14'1 1.2
2015-May-22 20:32N 34°41' E 135°12'4 0.3
2015-May-22 06:32N 34°41' E 135°17'4 3.8
2015-May-22 05:28N 34°41' E 135°12'0 0.0
2015-May-22 04:22N 34°41' E 135°12'0 0.0
2015-May-22 03:16N 34°41' E 135°12'0 0.0
2015-May-22 02:28N 34°41' E 135°12'0 0.0
2015-May-22 01:28N 34°41' E 135°12'0 0.0
2015-May-22 00:28N 34°41' E 135°12'3 2.6
2015-May-21 23:31N 34°39' E 135°15'2 1.8
2015-May-21 22:34N 34°41' E 135°16'2 1.7
2015-May-21 21:33N 34°41' E 135°18'5 4.8
2015-May-21 20:31N 34°41' E 135°12'1 0.0
2015-May-20 23:22N 34°41' E 135°13'4 4.7
2015-May-20 22:30N 34°42' E 135°18'3 2.6
2015-May-20 21:33N 34°41' E 135°15'3 2.5
2015-May-20 20:31N 34°41' E 135°12'0 0.0
2015-May-20 11:17N 34°41' E 135°13'2 2.8
2015-May-20 10:33N 34°40' E 135°15'1 1.0
2015-May-20 09:26N 34°39' E 135°15'1 1.3
2015-May-20 08:23N 34°40' E 135°13'1 0.6
2015-May-20 07:31N 34°40' E 135°14'1 1.1
2015-May-20 06:33N 34°41' E 135°14'1 0.6
2015-May-20 05:33N 34°41' E 135°14'1 0.7
2015-May-20 04:30N 34°41' E 135°15'2 2.5
2015-May-20 03:32N 34°41' E 135°12'0 0.0
2015-May-20 02:26N 34°41' E 135°12'0 0.0
2015-May-20 01:32N 34°41' E 135°12'0 0.0
2015-May-20 00:26N 34°41' E 135°12'0 0.0
2015-May-19 23:29N 34°41' E 135°12'2 2.7
2015-May-19 22:33N 34°40' E 135°15'1 1.1
2015-May-19 21:33N 34°41' E 135°14'1 1.3
2015-May-19 20:32N 34°41' E 135°12'2 0.2
2015-May-19 09:14N 34°42' E 135°15'1 1.0
2015-May-19 08:33N 34°42' E 135°15'3 2.3
2015-May-19 07:23N 34°41' E 135°12'0 0.0
2015-May-19 06:29N 34°41' E 135°12'0 0.0
2015-May-19 05:29N 34°41' E 135°12'0 0.0
2015-May-19 04:29N 34°41' E 135°12'0 0.0
2015-May-19 03:23N 34°41' E 135°12'3 3.0
2015-May-19 02:22N 34°42' E 135°16'0 0.4
2015-May-19 01:33N 34°42' E 135°15'3 2.6
2015-May-19 00:31N 34°41' E 135°12'0 0.0
2015-May-18 23:24N 34°41' E 135°12'  

Dump ship's entire track history